createdAt,value
2018-11-22T12:18:11.558Z,25.87
2018-11-22T12:20:40.551Z,20.97
2018-11-22T12:23:10.579Z,21.83
2018-11-22T12:25:39.599Z,19.93
2018-11-22T12:28:08.619Z,20.20
2018-11-22T12:30:37.694Z,20.17
2018-11-22T12:33:22.891Z,23.73
2018-11-22T12:35:57.424Z,20.07
2018-11-22T12:38:34.272Z,19.17
2018-11-22T12:41:03.232Z,21.50
2018-11-22T12:43:32.311Z,28.13
2018-11-22T12:46:01.862Z,26.60
2018-11-22T12:48:30.962Z,22.93
2018-11-22T12:51:00.409Z,24.57
2018-11-22T12:53:29.677Z,23.53
2018-11-22T12:55:58.791Z,21.37
2018-11-22T12:58:28.339Z,25.53
2018-11-22T13:00:58.296Z,23.40
2018-11-22T13:03:27.484Z,25.37
2018-11-22T13:05:56.808Z,32.93
2018-11-22T13:08:26.054Z,23.27
2018-11-22T13:10:55.460Z,28.63
2018-11-22T13:13:24.850Z,20.50
2018-11-22T13:15:53.991Z,21.77
2018-11-22T13:18:22.971Z,20.57
2018-11-22T13:20:51.971Z,22.37
2018-11-22T13:23:21.722Z,25.17
2018-11-22T13:25:51.602Z,24.53
2018-11-22T13:28:20.652Z,21.90
2018-11-22T13:30:49.814Z,20.97
2018-11-22T13:33:18.829Z,21.33
2018-11-22T13:35:48.307Z,21.97
2018-11-22T13:38:17.373Z,21.57
2018-11-22T13:40:46.411Z,20.73
2018-11-22T13:43:16.210Z,24.30
2018-11-22T13:45:45.687Z,22.80
2018-11-22T13:48:15.612Z,24.67
2018-11-22T13:50:44.675Z,22.43
2018-11-22T13:53:13.675Z,29.03
2018-11-22T13:55:42.713Z,25.27
2018-11-22T13:58:11.799Z,22.03
2018-11-22T14:00:41.109Z,20.07
2018-11-22T14:03:10.819Z,22.30
2018-11-22T14:05:40.326Z,21.50
2018-11-22T14:08:09.682Z,20.70
2018-11-22T14:10:39.051Z,23.07
2018-11-22T14:13:08.083Z,27.53
2018-11-22T14:15:37.193Z,23.00
2018-11-22T14:18:06.843Z,21.90
2018-11-22T14:20:36.731Z,22.43
2018-11-22T14:23:06.255Z,24.97
2018-11-22T14:25:35.296Z,23.07
2018-11-22T14:28:04.515Z,22.47
2018-11-22T14:30:34.872Z,21.90
2018-11-22T14:33:04.364Z,25.00
2018-11-22T14:35:36.024Z,26.07
2018-11-22T14:38:05.906Z,22.23
2018-11-22T14:40:35.552Z,23.87
2018-11-22T14:43:04.763Z,22.23
2018-11-22T14:45:34.172Z,20.90
2018-11-22T14:48:04.464Z,25.53
2018-11-22T14:50:45.921Z,24.70
2018-11-22T14:53:18.595Z,29.43
2018-11-22T14:55:47.667Z,21.57
2018-11-22T14:58:16.727Z,26.67
2018-11-22T15:00:46.295Z,26.93
2018-11-22T15:03:15.585Z,22.67
2018-11-22T15:05:45.067Z,31.13
2018-11-22T15:08:14.400Z,23.07
2018-11-22T15:10:43.391Z,24.17
2018-11-22T15:13:12.928Z,28.03
2018-11-22T15:15:41.947Z,28.30
2018-11-22T15:18:10.975Z,26.77
2018-11-22T15:20:40.361Z,24.90
2018-11-22T15:23:09.840Z,28.57
2018-11-22T15:25:38.836Z,22.63
2018-11-22T15:28:07.895Z,23.57
2018-11-22T15:30:37.259Z,27.60
2018-11-22T15:33:06.612Z,29.93
2018-11-22T15:35:36.100Z,26.63
2018-11-22T15:38:08.477Z,27.27
2018-11-22T15:40:37.544Z,28.70
2018-11-22T15:43:06.886Z,28.83
2018-11-22T15:45:36.461Z,25.47
2018-11-22T15:48:06.338Z,28.23
2018-11-22T15:50:35.620Z,26.50
2018-11-22T15:53:05.466Z,27.43
2018-11-22T15:55:35.066Z,28.43
2018-11-22T16:17:37.168Z,27.27
2018-11-22T16:20:07.104Z,25.90
2018-11-22T16:22:36.416Z,28.10
2018-11-22T16:25:10.503Z,25.27
2018-11-22T16:27:39.680Z,35.00
2018-11-22T16:30:13.192Z,30.00
2018-11-22T16:32:42.814Z,30.33
2018-11-22T16:35:12.672Z,27.03
2018-11-22T16:37:41.559Z,26.17
2018-11-22T16:40:12.025Z,29.13
2018-11-22T16:42:43.381Z,26.30
2018-11-22T16:45:18.600Z,27.83
2018-11-22T16:47:47.921Z,30.97
2018-11-22T16:50:18.320Z,30.27
2018-11-22T16:52:47.453Z,27.10
2018-11-22T16:55:16.395Z,25.60
2018-11-22T16:57:46.836Z,27.10
2018-11-22T17:00:20.376Z,27.50
2018-11-22T17:02:50.575Z,25.63
2018-11-22T17:05:19.884Z,30.50
2018-11-22T17:07:49.235Z,28.47
2018-11-22T17:10:19.518Z,28.43
2018-11-22T17:12:49.915Z,31.50
2018-11-22T17:15:20.779Z,33.07
2018-11-22T17:17:51.075Z,34.63
2018-11-22T17:20:21.016Z,29.77
2018-11-22T17:22:51.023Z,31.80
2018-11-22T17:25:22.243Z,31.70
2018-11-22T17:27:52.504Z,33.20
2018-11-22T17:30:22.760Z,29.03
2018-11-22T17:32:51.651Z,33.70
2018-11-22T17:35:22.176Z,30.07
2018-11-22T17:37:51.951Z,32.27
2018-11-22T17:40:24.002Z,27.87
2018-11-22T17:42:53.537Z,29.37
2018-11-22T17:45:24.785Z,32.30
2018-11-22T17:47:53.595Z,32.93
2018-11-22T17:50:25.067Z,28.00
2018-11-22T17:52:54.450Z,30.93
2018-11-22T17:55:24.963Z,30.87
2018-11-22T17:57:53.947Z,33.67
2018-11-22T18:00:26.357Z,30.43
2018-11-22T18:02:56.666Z,31.53
2018-11-22T18:05:27.257Z,31.77
2018-11-22T18:07:54.932Z,31.93
2018-11-22T18:10:25.609Z,31.07
2018-11-22T18:12:54.876Z,38.50
2018-11-22T18:15:24.494Z,36.20
2018-11-22T18:17:54.603Z,33.43
2018-11-22T18:20:26.047Z,31.73
2018-11-22T18:22:55.883Z,31.70
2018-11-22T18:25:26.022Z,36.83
2018-11-22T18:27:55.251Z,33.47
2018-11-22T18:30:26.343Z,38.67
2018-11-22T18:32:56.647Z,36.33
2018-11-22T18:35:26.790Z,36.77
2018-11-22T18:37:55.827Z,34.37
2018-11-22T18:40:27.650Z,33.67
2018-11-22T18:42:57.861Z,36.47
2018-11-22T18:45:33.839Z,35.03
2018-11-22T18:48:03.512Z,38.27
2018-11-22T18:50:33.426Z,34.13
2018-11-22T18:53:02.639Z,38.13
2018-11-22T18:55:31.330Z,35.33
2018-11-22T18:58:00.422Z,38.17
2018-11-22T19:00:35.689Z,33.50
2018-11-22T19:03:09.409Z,40.27
2018-11-22T19:05:39.949Z,32.77
2018-11-22T19:08:08.663Z,35.63
2018-11-22T19:10:38.927Z,37.30
2018-11-22T19:13:08.649Z,40.00
2018-11-22T19:15:40.350Z,41.97
2018-11-22T19:18:11.128Z,36.87
2018-11-22T19:20:41.563Z,38.00
2018-11-22T19:23:10.722Z,36.50
2018-11-22T19:25:40.156Z,47.13
2018-11-22T19:28:09.759Z,41.77
2018-11-22T19:30:44.224Z,41.20
2018-11-22T19:33:14.440Z,44.27
2018-11-22T19:35:44.892Z,38.97
2018-11-22T19:38:14.224Z,41.07
2018-11-22T19:40:43.656Z,44.67
2018-11-22T19:43:13.146Z,45.13
2018-11-22T19:45:44.816Z,45.23
2018-11-22T19:48:13.919Z,49.50
2018-11-22T19:50:43.410Z,46.07
2018-11-22T19:53:13.453Z,41.17
2018-11-22T19:55:42.751Z,41.87
2018-11-22T19:58:13.817Z,47.30
2018-11-22T20:00:42.900Z,47.10
2018-11-22T20:03:13.704Z,44.40
2018-11-22T20:05:43.939Z,57.30
2018-11-22T20:08:14.901Z,45.57
2018-11-22T20:10:45.171Z,40.17
2018-11-22T20:13:13.891Z,40.80
2018-11-22T20:15:42.657Z,43.23
2018-11-22T20:18:11.771Z,42.13
2018-11-22T20:20:41.024Z,42.00
2018-11-22T20:23:10.279Z,46.50
2018-11-22T20:25:40.668Z,38.10
2018-11-22T20:28:09.735Z,40.07
2018-11-22T20:30:40.799Z,45.03
2018-11-22T20:33:09.904Z,49.47
2018-11-22T20:35:39.326Z,44.63
2018-11-22T20:38:08.611Z,51.47
2018-11-22T20:40:37.595Z,43.50
2018-11-22T20:43:06.803Z,46.73
2018-11-22T20:45:40.814Z,47.60
2018-11-22T20:48:06.280Z,46.80
2018-11-22T20:50:35.524Z,45.33
2018-11-22T20:53:04.360Z,56.50
2018-11-22T20:55:35.829Z,49.07
2018-11-22T20:58:05.499Z,48.83
2018-11-22T21:00:35.972Z,46.87
2018-11-22T21:03:06.306Z,48.73
2018-11-22T21:05:35.479Z,48.17
2018-11-22T21:08:04.068Z,43.40
2018-11-22T21:10:34.124Z,41.30
2018-11-22T21:13:03.599Z,39.87
2018-11-22T21:15:33.720Z,38.60
2018-11-22T21:18:04.024Z,37.73
2018-11-22T21:20:34.852Z,165.00
2018-11-22T21:23:04.168Z,51.70
2018-11-22T21:25:33.260Z,39.40
2018-11-22T21:28:02.012Z,39.60
2018-11-22T21:30:32.807Z,42.03
2018-11-22T21:33:02.611Z,43.70
2018-11-22T21:35:32.112Z,54.77
2018-11-22T21:38:02.535Z,53.00
2018-11-22T21:40:32.237Z,53.83
2018-11-22T21:43:01.247Z,44.43
2018-11-22T21:45:31.036Z,99.03
2018-11-22T21:47:59.728Z,175.80
2018-11-22T21:50:29.622Z,114.93
2018-11-22T21:52:58.634Z,115.60
2018-11-22T21:55:29.908Z,38.20
2018-11-22T21:58:00.949Z,44.77
2018-11-22T22:00:33.304Z,66.13
2018-11-22T22:03:03.843Z,63.10
2018-11-22T22:05:32.890Z,36.10
2018-11-22T22:08:01.944Z,43.90
2018-11-22T22:10:30.661Z,71.50
2018-11-22T22:12:59.806Z,42.73
2018-11-22T22:15:30.199Z,55.00
2018-11-22T22:17:59.364Z,53.67
2018-11-22T22:20:30.237Z,56.50
2018-11-22T22:22:59.833Z,62.00
2018-11-22T22:25:29.225Z,52.60
2018-11-22T22:27:58.579Z,82.10
2018-11-22T22:30:28.993Z,58.33
2018-11-22T22:32:59.533Z,47.63
2018-11-22T22:35:29.297Z,42.03
2018-11-22T22:37:58.340Z,43.20
2018-11-22T22:40:27.991Z,43.90
2018-11-22T22:42:57.547Z,93.03
2018-11-22T22:45:28.200Z,43.43
2018-11-22T22:47:56.866Z,46.67
2018-11-22T22:50:27.618Z,31.83
2018-11-22T22:52:57.938Z,56.37
2018-11-22T22:55:27.540Z,71.77
2018-11-22T22:57:56.555Z,89.90
2018-11-22T23:00:31.976Z,51.10
2018-11-22T23:03:02.077Z,156.73
2018-11-22T23:05:31.618Z,122.27
2018-11-22T23:08:00.888Z,221.83
2018-11-22T23:10:30.532Z,48.97
2018-11-22T23:12:59.920Z,44.30
2018-11-22T23:15:29.729Z,58.40
2018-11-22T23:17:59.172Z,116.50
2018-11-22T23:20:29.154Z,78.90
2018-11-22T23:23:03.366Z,117.67
2018-11-22T23:25:32.810Z,101.67
2018-11-22T23:28:01.991Z,138.90
2018-11-22T23:30:40.152Z,110.07
2018-11-22T23:33:09.573Z,70.50
2018-11-22T23:35:39.004Z,69.63
2018-11-22T23:38:08.025Z,110.07
2018-11-22T23:40:39.142Z,98.90
2018-11-22T23:43:08.311Z,75.67
2018-11-22T23:45:37.219Z,43.33
2018-11-22T23:48:05.889Z,40.77
2018-11-22T23:50:34.811Z,46.77
2018-11-22T23:53:05.200Z,92.57
2018-11-22T23:55:34.211Z,80.60
2018-11-22T23:58:02.792Z,42.10
